Time;durP1;ratioP1;P1;durP2;ratioP2;P2;SDS_P1;SDS_P2;PMS_P1;PMS_P2;Temp;Humidity;BMP_temperature;BMP_pressure;BME280_temperature;BME280_humidity;BME280_pressure;Samples;Min_cycle;Max_cycle;Signal;HPM_P1;HPM_P2
2022/07/19 00:01:21;;;;;;;;;;;;;;;14.79;63.58;101131.60;1711209;84;20220;-75
2022/07/19 00:03:47;;;;;;;;;;;;;;;14.74;63.53;101129.61;1711510;84;20143;-76
2022/07/19 00:06:14;;;;;;;;;;;;;;;14.70;63.43;101126.73;1711365;84;20314;-75
2022/07/19 00:08:41;;;;;;;;;;;;;;;14.63;63.24;101128.78;1701417;84;21194;-76
2022/07/19 00:11:08;;;;;;;;;;;;;;;14.60;63.06;101124.07;1701821;82;21221;-76
2022/07/19 00:13:36;;;;;;;;;;;;;;;14.53;62.94;101126.13;1711512;82;20198;-76
2022/07/19 00:16:02;;;;;;;;;;;;;;;14.45;62.94;101125.08;1711239;84;20219;-76
2022/07/19 00:18:29;;;;;;;;;;;;;;;14.42;63.14;101123.89;1711468;84;20182;-76
2022/07/19 00:20:56;;;;;;;;;;;;;;;14.42;63.33;101117.30;1711330;84;20527;-76
2022/07/19 00:23:23;;;;;;;;;;;;;;;14.40;63.47;101116.50;1693865;84;21193;-76
2022/07/19 00:25:49;;;;;;;;;;;;;;;14.37;63.66;101119.27;1709040;82;20182;-76
2022/07/19 00:28:16;;;;;;;;;;;;;;;14.35;63.81;101122.42;1711468;82;20464;-78
2022/07/19 00:30:42;;;;;;;;;;;;;;;14.35;64.02;101121.56;1711292;82;20230;-76
2022/07/19 00:33:09;;;;;;;;;;;;;;;14.39;64.30;101121.86;1711525;84;20487;-76
2022/07/19 00:35:37;;;;;;;;;;;;;;;14.41;64.35;101123.95;1711138;84;21775;-76
2022/07/19 00:38:10;;;;;;;;;;;;;;;14.42;64.49;101126.53;1711409;84;20214;-76
2022/07/19 00:40:37;;;;;;;;;;;;;;;14.45;64.69;101124.23;1711191;82;20170;-76
2022/07/19 00:43:04;;;;;;;;;;;;;;;14.50;64.73;101120.48;1699383;84;20180;-76
2022/07/19 00:45:31;;;;;;;;;;;;;;;14.54;64.86;101121.23;1697037;83;20577;-76
2022/07/19 00:47:57;;;;;;;;;;;;;;;14.60;64.93;101122.28;1711504;82;21168;-76
2022/07/19 00:50:24;;;;;;;;;;;;;;;14.66;65.12;101123.38;1711223;82;20182;-76
2022/07/19 00:52:54;;;;;;;;;;;;;;;14.70;65.09;101120.12;1711141;82;20190;-77
2022/07/19 00:55:22;;;;;;;;;;;;;;;14.74;65.02;101120.38;1711289;84;20181;-76
2022/07/19 00:57:49;;;;;;;;;;;;;;;14.80;65.07;101123.22;1711292;84;20477;-77
2022/07/19 01:00:18;;;;;;;;;;;;;;;14.83;64.98;101123.11;1711208;82;21180;-76
2022/07/19 01:02:44;;;;;;;;;;;;;;;14.84;64.85;101119.07;1708182;84;20231;-76
2022/07/19 01:05:11;;;;;;;;;;;;;;;14.86;64.76;101122.51;1711209;83;20180;-76
2022/07/19 01:07:41;;;;;;;;;;;;;;;14.87;64.75;101126.85;1691700;82;20208;-76
2022/07/19 01:10:10;;;;;;;;;;;;;;;14.87;64.67;101124.21;1691177;84;20490;-76
2022/07/19 01:12:37;;;;;;;;;;;;;;;14.90;64.61;101127.19;1691116;84;21316;-76
2022/07/19 01:15:08;;;;;;;;;;;;;;;14.92;64.37;101118.75;1711179;82;20190;-77
2022/07/19 01:17:35;;;;;;;;;;;;;;;14.95;64.19;101122.56;1696569;83;20178;-76
2022/07/19 01:20:01;;;;;;;;;;;;;;;14.95;63.95;101119.46;1696755;82;20415;-76
2022/07/19 01:22:28;;;;;;;;;;;;;;;14.95;63.94;101117.28;1706343;82;20829;-77
2022/07/19 01:24:54;;;;;;;;;;;;;;;14.97;63.93;101120.73;1711298;84;21093;-77
2022/07/19 01:27:21;;;;;;;;;;;;;;;14.96;63.72;101121.63;1711347;82;20186;-76
2022/07/19 01:29:48;;;;;;;;;;;;;;;14.98;63.66;101123.75;1711302;84;20203;-76
2022/07/19 01:32:15;;;;;;;;;;;;;;;14.98;63.62;101123.75;1711612;84;20206;-77
2022/07/19 01:34:42;;;;;;;;;;;;;;;14.98;63.54;101120.26;1711283;84;20550;-76
2022/07/19 01:37:08;;;;;;;;;;;;;;;14.98;63.44;101119.79;1696371;84;21182;-76
2022/07/19 01:39:35;;;;;;;;;;;;;;;14.99;63.45;101113.58;1706496;82;20576;-76
2022/07/19 01:42:02;;;;;;;;;;;;;;;15.03;63.58;101114.32;1711438;84;20192;-76
2022/07/19 01:44:29;;;;;;;;;;;;;;;15.06;63.55;101114.18;1711181;84;20206;-76
2022/07/19 01:46:55;;;;;;;;;;;;;;;15.07;63.31;101110.12;1711492;82;20476;-78
2022/07/19 01:49:22;;;;;;;;;;;;;;;15.12;63.27;101111.26;1711310;84;21735;-75
2022/07/19 01:51:49;;;;;;;;;;;;;;;15.14;63.20;101112.91;1684225;82;20122;-76
2022/07/19 01:54:16;;;;;;;;;;;;;;;15.18;63.08;101109.66;1711257;84;20159;-76
2022/07/19 01:56:43;;;;;;;;;;;;;;;15.20;63.03;101109.14;1711177;82;20233;-76
2022/07/19 01:59:10;;;;;;;;;;;;;;;15.23;63.12;101109.46;1711303;84;20587;-76
2022/07/19 02:01:36;;;;;;;;;;;;;;;15.26;63.15;101110.17;1711169;84;21116;-76
2022/07/19 02:04:03;;;;;;;;;;;;;;;15.28;63.23;101110.97;1711361;82;20171;-76
2022/07/19 02:06:30;;;;;;;;;;;;;;;15.30;63.30;101114.41;1711412;82;20135;-76
2022/07/19 02:08:57;;;;;;;;;;;;;;;15.34;63.24;101115.97;1711292;84;20199;-76
2022/07/19 02:11:35;;;;;;;;;;;;;;;15.37;63.39;101113.18;1694861;82;21278;-76
2022/07/19 02:14:05;;;;;;;;;;;;;;;15.38;63.54;101113.59;1710430;82;21301;-76
2022/07/19 02:16:31;;;;;;;;;;;;;;;15.38;63.44;101108.78;1710769;84;20290;-76
2022/07/19 02:18:58;;;;;;;;;;;;;;;15.37;63.33;101113.18;1711262;84;20167;-76
2022/07/19 02:21:24;;;;;;;;;;;;;;;15.37;63.42;101111.01;1711349;84;20183;-77
2022/07/19 02:23:51;;;;;;;;;;;;;;;15.36;63.52;101115.44;1711529;82;20411;-76
2022/07/19 02:26:18;;;;;;;;;;;;;;;15.36;63.61;101115.44;1711261;84;21114;-77
2022/07/19 02:28:45;;;;;;;;;;;;;;;15.35;63.79;101112.42;1711463;82;20427;-76
2022/07/19 02:31:12;;;;;;;;;;;;;;;15.33;63.87;101112.09;1711342;82;20139;-76
2022/07/19 02:33:38;;;;;;;;;;;;;;;15.31;63.94;101106.02;1711491;84;20182;-76
2022/07/19 02:36:05;;;;;;;;;;;;;;;15.29;64.00;101110.03;1711291;82;21060;-77
2022/07/19 02:38:32;;;;;;;;;;;;;;;15.27;64.13;101107.95;1711466;84;21304;-77
2022/07/19 02:40:59;;;;;;;;;;;;;;;15.26;64.15;101111.96;1711109;84;20122;-76
2022/07/19 02:43:26;;;;;;;;;;;;;;;15.23;64.20;101110.31;1711360;84;20147;-78
2022/07/19 02:45:53;;;;;;;;;;;;;;;15.22;64.16;101109.93;1711269;82;20214;-76
2022/07/19 02:48:20;;;;;;;;;;;;;;;15.22;64.36;101108.61;1711404;84;20466;-76
2022/07/19 02:50:46;;;;;;;;;;;;;;;15.20;64.39;101106.96;1711138;82;21114;-78
2022/07/19 02:53:13;;;;;;;;;;;;;;;15.19;64.32;101107.43;1711091;84;20277;-76
2022/07/19 02:55:40;;;;;;;;;;;;;;;15.17;64.42;101099.56;1694264;84;20303;-79
2022/07/19 02:58:07;;;;;;;;;;;;;;;15.17;64.61;101106.64;1700734;84;20216;-77
2022/07/19 03:00:33;;;;;;;;;;;;;;;15.17;64.65;101104.00;1692750;83;20559;-76
2022/07/19 03:05:47;;;;;;;;;;;;;;;15.14;64.69;101103.66;1711168;82;20168;-76
2022/07/19 03:08:14;;;;;;;;;;;;;;;15.14;64.72;101102.81;1711398;84;20152;-78
2022/07/19 03:10:41;;;;;;;;;;;;;;;15.14;64.69;101104.14;1711309;84;20198;-77
2022/07/19 03:13:08;;;;;;;;;;;;;;;15.15;64.74;101101.41;1711165;84;21312;-77
2022/07/19 03:15:37;;;;;;;;;;;;;;;15.17;64.77;101107.95;1711286;84;21094;-77
2022/07/19 03:18:03;;;;;;;;;;;;;;;15.13;64.65;101108.56;1711037;84;20167;-77
2022/07/19 03:20:31;;;;;;;;;;;;;;;15.15;64.70;101114.61;1711165;82;20494;-77
2022/07/19 03:22:57;;;;;;;;;;;;;;;15.13;64.71;101107.68;1699742;84;20162;-77
2022/07/19 03:25:24;;;;;;;;;;;;;;;15.10;64.69;101107.82;1697083;84;21201;-76
2022/07/19 03:27:53;;;;;;;;;;;;;;;15.10;64.74;101114.42;1686318;82;21113;-78
2022/07/19 03:30:19;;;;;;;;;;;;;;;15.09;64.84;101108.77;1682833;84;20201;-76
2022/07/19 03:32:46;;;;;;;;;;;;;;;15.07;64.74;101109.28;1682654;84;20197;-76
2022/07/19 03:35:13;;;;;;;;;;;;;;;15.05;64.77;101105.41;1682899;84;20297;-77
2022/07/19 03:37:41;;;;;;;;;;;;;;;15.02;64.88;101110.83;1682609;84;20568;-76
2022/07/19 03:40:09;;;;;;;;;;;;;;;14.98;64.85;101110.55;1683034;84;21176;-78
2022/07/19 03:42:36;;;;;;;;;;;;;;;14.94;64.88;101115.59;1682623;84;20177;-75
2022/07/19 03:45:04;;;;;;;;;;;;;;;14.90;64.91;101117.95;1683018;82;20185;-76
2022/07/19 03:47:30;;;;;;;;;;;;;;;14.85;64.99;101112.86;1682600;82;20208;-76
2022/07/19 03:49:58;;;;;;;;;;;;;;;14.82;65.10;101119.59;1682976;84;20477;-76
2022/07/19 03:52:25;;;;;;;;;;;;;;;14.77;65.15;101116.75;1691775;83;21162;-75
2022/07/19 03:54:52;;;;;;;;;;;;;;;14.72;65.23;101116.97;1696911;83;20146;-76
2022/07/19 03:57:18;;;;;;;;;;;;;;;14.68;65.35;101120.65;1691110;83;20216;-77
2022/07/19 03:59:45;;;;;;;;;;;;;;;14.64;65.53;101120.40;1696993;83;20204;-77
2022/07/19 04:02:11;;;;;;;;;;;;;;;14.61;65.67;101120.06;1696810;81;20563;-77
2022/07/19 04:04:38;;;;;;;;;;;;;;;14.57;65.75;101121.10;1697165;83;21171;-76
2022/07/19 04:07:05;;;;;;;;;;;;;;;14.56;65.70;101122.50;1710293;83;20210;-76
2022/07/19 04:09:31;;;;;;;;;;;;;;;14.53;65.79;101123.95;1697015;83;20185;-77
2022/07/19 04:11:58;;;;;;;;;;;;;;;14.50;65.95;101119.16;1696932;83;20190;-75
2022/07/19 04:14:25;;;;;;;;;;;;;;;14.49;66.20;101114.82;1710017;83;20477;-76
2022/07/19 04:16:52;;;;;;;;;;;;;;;14.49;66.20;101113.50;1696776;81;21114;-76
2022/07/19 04:19:19;;;;;;;;;;;;;;;14.49;66.30;101110.86;1697016;83;20284;-77
2022/07/19 04:21:45;;;;;;;;;;;;;;;14.51;66.35;101110.31;1703450;83;20189;-78
2022/07/19 04:24:12;;;;;;;;;;;;;;;14.55;66.49;101112.85;1697689;83;20178;-77
2022/07/19 04:26:39;;;;;;;;;;;;;;;14.58;66.52;101113.60;1697780;83;20578;-77
2022/07/19 04:29:05;;;;;;;;;;;;;;;14.64;66.48;101109.84;1697063;83;21159;-78
2022/07/19 04:31:32;;;;;;;;;;;;;;;14.72;66.64;101119.61;1696776;81;20177;-76
2022/07/19 04:33:59;;;;;;;;;;;;;;;14.77;66.38;101119.39;1697009;83;21212;-78
2022/07/19 04:36:25;;;;;;;;;;;;;;;14.82;66.14;101118.73;1697704;83;20138;-77
2022/07/19 04:38:52;;;;;;;;;;;;;;;14.89;66.07;101122.38;1704552;81;20590;-77
2022/07/19 04:41:18;;;;;;;;;;;;;;;14.98;66.00;101115.83;1695280;83;21122;-77
2022/07/19 04:43:45;;;;;;;;;;;;;;;15.08;66.01;101117.15;1700404;83;20185;-76
2022/07/19 04:46:12;;;;;;;;;;;;;;;15.17;65.91;101116.73;1697525;83;20191;-78
2022/07/19 04:48:40;;;;;;;;;;;;;;;15.27;65.76;101122.91;1697027;83;20193;-77
2022/07/19 04:51:08;;;;;;;;;;;;;;;15.37;65.77;101122.89;1699653;82;20529;-76
2022/07/19 04:53:34;;;;;;;;;;;;;;;15.47;65.72;101122.03;1706889;82;21211;-76
2022/07/19 04:56:01;;;;;;;;;;;;;;;15.57;65.73;101129.91;1720059;82;20179;-76
2022/07/19 04:58:28;;;;;;;;;;;;;;;15.66;65.84;101125.53;1704861;82;20341;-78
2022/07/19 05:00:55;;;;;;;;;;;;;;;15.75;66.04;101125.13;1697015;83;20181;-76
2022/07/19 05:03:21;;;;;;;;;;;;;;;15.87;66.28;101116.22;1703039;83;20488;-78
2022/07/19 05:05:48;;;;;;;;;;;;;;;15.95;66.16;101122.85;1697170;83;21107;-86
2022/07/19 05:08:15;;;;;;;;;;;;;;;16.05;66.12;101124.60;1696773;83;20170;-78
2022/07/19 05:10:41;;;;;;;;;;;;;;;16.13;65.99;101123.77;1694880;83;20173;-79
2022/07/19 05:13:08;;;;;;;;;;;;;;;16.23;65.82;101130.77;1723276;83;20202;-79
2022/07/19 05:15:35;;;;;;;;;;;;;;;16.31;65.33;101127.76;1723269;83;20508;-83
2022/07/19 05:18:01;;;;;;;;;;;;;;;16.41;65.19;101121.94;1710258;81;22007;-80
2022/07/19 05:20:28;;;;;;;;;;;;;;;16.52;65.06;101125.37;1723033;83;20176;-79
2022/07/19 05:22:54;;;;;;;;;;;;;;;16.60;64.97;101131.58;1723579;83;20203;-80
2022/07/19 05:25:21;;;;;;;;;;;;;;;16.70;64.89;101131.52;1716922;83;20374;-85
2022/07/19 05:27:50;;;;;;;;;;;;;;;16.82;65.22;101129.61;1709791;83;20496;-81
2022/07/19 05:30:16;;;;;;;;;;;;;;;16.93;65.07;101121.97;1697555;81;21046;-78
2022/07/19 05:32:43;;;;;;;;;;;;;;;17.03;64.95;101122.32;1695276;83;20220;-79
2022/07/19 05:35:10;;;;;;;;;;;;;;;17.13;64.81;101126.20;1702735;83;20507;-78
2022/07/19 05:37:36;;;;;;;;;;;;;;;17.23;64.64;101119.09;1710969;83;20212;-79
2022/07/19 05:40:03;;;;;;;;;;;;;;;17.34;64.83;101118.05;1701724;83;20547;-78
2022/07/19 05:42:30;;;;;;;;;;;;;;;17.47;64.96;101116.92;1700241;83;21709;-79
2022/07/19 05:44:56;;;;;;;;;;;;;;;17.59;64.82;101111.78;1711645;83;20205;-83
2022/07/19 05:47:23;;;;;;;;;;;;;;;17.73;64.54;101120.78;1702208;83;20336;-82
2022/07/19 05:49:50;;;;;;;;;;;;;;;17.82;64.44;101111.89;1694360;83;20185;-80
2022/07/19 05:52:16;;;;;;;;;;;;;;;17.93;64.29;101107.76;1711181;83;21175;-76
2022/07/19 05:54:43;;;;;;;;;;;;;;;18.04;64.19;101106.23;1697279;83;22716;-76
2022/07/19 05:57:10;;;;;;;;;;;;;;;18.13;64.09;101104.84;1700390;83;20257;-76
2022/07/19 05:59:37;;;;;;;;;;;;;;;18.24;64.15;101091.81;1694448;83;20189;-75
2022/07/19 06:02:03;;;;;;;;;;;;;;;18.38;63.81;101100.30;1714746;83;20450;-76
2022/07/19 06:04:30;;;;;;;;;;;;;;;18.49;63.63;101100.52;1701799;83;20580;-76
2022/07/19 06:06:56;;;;;;;;;;;;;;;18.61;63.53;101099.41;1705565;83;21216;-77
2022/07/19 06:09:24;;;;;;;;;;;;;;;18.72;63.28;101100.47;1696208;83;20209;-77
2022/07/19 06:11:52;;;;;;;;;;;;;;;18.81;63.21;101094.25;1696016;83;20384;-78
2022/07/19 06:14:18;;;;;;;;;;;;;;;18.92;63.01;101093.98;1707144;83;20208;-77
2022/07/19 06:16:45;;;;;;;;;;;;;;;19.04;63.00;101099.48;1704150;82;21278;-77
2022/07/19 06:19:12;;;;;;;;;;;;;;;19.16;62.81;101100.92;1694335;83;21222;-84
2022/07/19 06:21:39;;;;;;;;;;;;;;;19.26;62.78;101100.34;1704645;83;20209;-77
2022/07/19 06:24:05;;;;;;;;;;;;;;;19.36;62.73;101101.48;1703879;83;20221;-74
2022/07/19 06:26:32;;;;;;;;;;;;;;;19.45;62.69;101102.23;1707215;83;20179;-74
2022/07/19 06:28:59;;;;;;;;;;;;;;;19.57;62.43;101101.47;1725557;83;20401;-74
2022/07/19 06:31:25;;;;;;;;;;;;;;;19.68;62.37;101099.98;1725145;83;21096;-74
2022/07/19 06:33:52;;;;;;;;;;;;;;;19.76;62.18;101102.52;1725568;83;20460;-74
2022/07/19 06:36:19;;;;;;;;;;;;;;;19.82;61.98;101098.61;1725400;83;20203;-74
2022/07/19 06:38:47;;;;;;;;;;;;;;;19.89;62.10;101102.55;1725652;83;20140;-74
2022/07/19 06:41:14;;;;;;;;;;;;;;;20.02;61.73;101098.15;1725709;82;20488;-74
2022/07/19 06:43:41;;;;;;;;;;;;;;;20.17;61.76;101098.94;1726690;83;20601;-74
2022/07/19 06:46:08;;;;;;;;;;;;;;;20.28;61.69;101101.77;1726185;83;20136;-74
2022/07/19 06:48:35;;;;;;;;;;;;;;;20.42;61.66;101095.97;1726367;82;20211;-74
2022/07/19 06:51:02;;;;;;;;;;;;;;;20.58;61.36;101095.83;1726153;83;20519;-74
2022/07/19 06:53:29;;;;;;;;;;;;;;;20.75;61.05;101095.52;1725948;82;20549;-74
2022/07/19 06:55:56;;;;;;;;;;;;;;;20.88;60.46;101092.88;1728215;83;21844;-74
2022/07/19 06:58:22;;;;;;;;;;;;;;;21.03;58.95;101086.46;1728447;83;20171;-74
2022/07/19 07:00:49;;;;;;;;;;;;;;;21.20;58.74;101083.09;1728243;83;20230;-74
2022/07/19 07:03:20;;;;;;;;;;;;;;;21.36;58.94;101086.38;1728358;83;20521;-74
2022/07/19 07:05:45;;;;;;;;;;;;;;;21.49;58.01;101091.23;1726896;83;20664;-74
2022/07/19 07:08:12;;;;;;;;;;;;;;;21.65;56.76;101092.33;1707738;83;21069;-74
2022/07/19 07:10:39;;;;;;;;;;;;;;;21.86;56.02;101087.70;1720433;83;20177;-75
2022/07/19 07:13:06;;;;;;;;;;;;;;;22.06;55.39;101085.77;1716104;83;20182;-74
2022/07/19 07:15:33;;;;;;;;;;;;;;;22.32;55.07;101082.50;1728198;83;20464;-75
2022/07/19 07:17:59;;;;;;;;;;;;;;;22.60;54.04;101091.08;1728259;83;20502;-74
2022/07/19 07:20:26;;;;;;;;;;;;;;;22.80;53.41;101089.05;1728086;83;21897;-75
2022/07/19 07:22:53;;;;;;;;;;;;;;;23.06;52.93;101090.23;1728073;83;20442;-75
2022/07/19 07:25:19;;;;;;;;;;;;;;;23.32;52.35;101081.46;1728188;81;20155;-75
2022/07/19 07:27:47;;;;;;;;;;;;;;;23.57;51.77;101085.69;1728173;81;20606;-75
2022/07/19 07:30:14;;;;;;;;;;;;;;;23.77;51.09;101082.75;1728537;83;20443;-75
2022/07/19 07:32:40;;;;;;;;;;;;;;;23.94;50.62;101084.04;1727995;81;21160;-75
2022/07/19 07:35:08;;;;;;;;;;;;;;;24.12;50.00;101085.70;1728069;83;20168;-75
2022/07/19 07:37:34;;;;;;;;;;;;;;;24.31;49.52;101083.18;1728237;81;20187;-75
2022/07/19 07:40:02;;;;;;;;;;;;;;;24.43;49.15;101081.28;1728375;81;20198;-75
2022/07/19 07:42:31;;;;;;;;;;;;;;;24.58;48.78;101081.83;1728109;83;20589;-75
2022/07/19 07:45:00;;;;;;;;;;;;;;;24.70;48.02;101081.64;1728307;83;22019;-75
2022/07/19 07:47:27;;;;;;;;;;;;;;;24.83;47.90;101084.59;1707576;81;20193;-75
2022/07/19 07:49:54;;;;;;;;;;;;;;;24.98;47.35;101085.96;1728120;83;20151;-75
2022/07/19 07:52:21;;;;;;;;;;;;;;;25.09;46.96;101079.16;1728249;82;20171;-75
2022/07/19 07:54:48;;;;;;;;;;;;;;;25.21;46.57;101075.08;1724212;83;20549;-75
2022/07/19 07:57:16;;;;;;;;;;;;;;;25.29;46.16;101077.44;1721005;81;21946;-75
2022/07/19 07:59:43;;;;;;;;;;;;;;;25.39;45.88;101072.12;1727960;81;20182;-75
2022/07/19 08:02:09;;;;;;;;;;;;;;;25.53;45.32;101077.09;1728328;83;20151;-75
2022/07/19 08:04:36;;;;;;;;;;;;;;;25.65;45.12;101079.16;1727983;83;20152;-75
2022/07/19 08:07:02;;;;;;;;;;;;;;;25.76;44.99;101076.86;1728396;83;20477;-75
2022/07/19 08:09:30;;;;;;;;;;;;;;;25.84;44.45;101073.02;1728024;81;21926;-76
2022/07/19 08:11:58;;;;;;;;;;;;;;;25.90;44.09;101074.30;1707808;81;20225;-75
2022/07/19 08:14:25;;;;;;;;;;;;;;;25.96;43.72;101076.41;1727973;81;20496;-75
2022/07/19 08:16:52;;;;;;;;;;;;;;;26.02;43.33;101078.06;1728387;83;20163;-75
2022/07/19 08:19:18;;;;;;;;;;;;;;;26.18;43.15;101070.76;1727974;83;21249;-75
2022/07/19 08:21:45;;;;;;;;;;;;;;;26.37;42.32;101071.25;1701747;83;21091;-75
2022/07/19 08:24:12;;;;;;;;;;;;;;;26.47;42.05;101072.59;1725946;81;20230;-75
2022/07/19 08:26:39;;;;;;;;;;;;;;;26.57;41.54;101079.31;1728018;82;20193;-75
2022/07/19 08:29:05;;;;;;;;;;;;;;;26.66;41.10;101069.90;1728356;81;20444;-75
2022/07/19 08:31:32;;;;;;;;;;;;;;;26.80;40.81;101068.59;1728418;81;20426;-75
2022/07/19 08:33:59;;;;;;;;;;;;;;;26.89;40.13;101063.67;1699010;82;21841;-75
2022/07/19 08:36:26;;;;;;;;;;;;;;;26.99;39.99;101060.09;1728327;81;20164;-75
2022/07/19 08:38:53;;;;;;;;;;;;;;;27.10;39.44;101063.94;1728111;83;20460;-75
2022/07/19 08:41:20;;;;;;;;;;;;;;;27.25;38.92;101061.66;1728228;83;20140;-75
2022/07/19 08:43:50;;;;;;;;;;;;;;;27.34;38.47;101060.24;1728045;83;20589;-75
2022/07/19 08:46:18;;;;;;;;;;;;;;;27.42;38.18;101060.00;1728285;81;21161;-75
2022/07/19 08:48:46;;;;;;;;;;;;;;;27.49;37.97;101068.68;1707828;83;20424;-75
2022/07/19 08:51:13;;;;;;;;;;;;;;;27.58;37.53;101065.07;1728255;81;20182;-75
2022/07/19 08:53:40;;;;;;;;;;;;;;;27.60;37.31;101058.17;1728044;83;20151;-75
2022/07/19 08:57:57;;;;;;;;;;;;;;;27.63;37.14;101056.55;1728508;81;20539;-75
2022/07/19 08:58:37;;;;;;;;;;;;;;;27.72;37.29;101054.28;1724937;83;21981;-75
2022/07/19 09:01:04;;;;;;;;;;;;;;;27.79;37.15;101051.81;1708186;83;20167;-75
2022/07/19 09:03:31;;;;;;;;;;;;;;;27.88;36.92;101053.64;1728202;81;20523;-75
2022/07/19 09:06:05;;;;;;;;;;;;;;;27.99;37.08;101047.14;1724253;83;20198;-76
2022/07/19 09:08:33;;;;;;;;;;;;;;;28.12;37.17;101049.45;1728012;81;20556;-75
2022/07/19 09:11:15;;;;;;;;;;;;;;;28.30;36.99;101042.72;1693372;82;21024;-75
2022/07/19 09:13:43;;;;;;;;;;;;;;;28.49;37.40;101044.38;1719368;83;20218;-75
2022/07/19 09:16:10;;;;;;;;;;;;;;;28.66;36.88;101044.85;1711898;83;20168;-75
2022/07/19 09:18:37;;;;;;;;;;;;;;;28.82;36.15;101042.73;1728023;83;20194;-76
2022/07/19 09:21:05;;;;;;;;;;;;;;;28.94;35.78;101037.92;1728030;83;21478;-75
2022/07/19 09:23:33;;;;;;;;;;;;;;;29.00;35.22;101035.41;1728046;81;21269;-76
2022/07/19 09:26:05;;;;;;;;;;;;;;;29.05;35.17;101033.63;1728470;83;20160;-75
2022/07/19 09:28:33;;;;;;;;;;;;;;;29.13;35.28;101035.85;1727992;83;20273;-75
2022/07/19 09:31:02;;;;;;;;;;;;;;;29.23;34.84;101024.91;1728347;81;20187;-75
2022/07/19 09:33:30;;;;;;;;;;;;;;;29.34;35.11;101034.05;1728013;83;20490;-75
2022/07/19 09:36:00;;;;;;;;;;;;;;;29.48;34.72;101034.44;1728431;83;21099;-75
2022/07/19 09:38:29;;;;;;;;;;;;;;;29.55;34.05;101033.62;1726766;83;20179;-75
2022/07/19 09:41:15;;;;;;;;;;;;;;;29.57;33.92;101034.81;1728274;83;20154;-75
2022/07/19 09:44:06;;;;;;;;;;;;;;;29.59;33.54;101032.77;1727973;81;20198;-75
2022/07/19 09:46:33;;;;;;;;;;;;;;;29.67;33.58;101028.77;1707467;83;20499;-76
2022/07/19 09:49:08;;;;;;;;;;;;;;;29.80;33.56;101022.89;1728065;83;21232;-76
2022/07/19 09:51:37;;;;;;;;;;;;;;;29.93;33.33;101028.65;1728141;81;20488;-75
2022/07/19 09:54:05;;;;;;;;;;;;;;;30.08;33.04;101027.97;1728040;81;20155;-76
2022/07/19 09:56:32;;;;;;;;;;;;;;;30.19;32.72;101020.87;1728041;81;20179;-75
2022/07/19 09:58:59;;;;;;;;;;;;;;;30.29;32.63;101023.41;1728259;82;20483;-75
2022/07/19 10:01:28;;;;;;;;;;;;;;;30.38;32.59;101019.19;1727936;83;21180;-75
2022/07/19 10:03:57;;;;;;;;;;;;;;;30.44;32.02;101019.02;1728191;83;20206;-75
2022/07/19 10:06:25;;;;;;;;;;;;;;;30.53;31.99;101013.08;1728079;82;20155;-76
2022/07/19 10:08:52;;;;;;;;;;;;;;;30.70;32.30;101015.23;1707943;83;20155;-76
2022/07/19 10:11:20;;;;;;;;;;;;;;;30.88;32.11;101011.31;1692323;83;20493;-76
2022/07/19 10:13:48;;;;;;;;;;;;;;;31.07;31.93;101014.13;1724232;81;21095;-76
2022/07/19 10:16:36;;;;;;;;;;;;;;;31.23;31.94;101011.82;1727927;83;20196;-75
2022/07/19 10:19:12;;;;;;;;;;;;;;;31.42;32.12;101013.80;1728301;83;20199;-76
2022/07/19 10:21:40;;;;;;;;;;;;;;;31.68;31.78;101005.34;1727827;83;20178;-76
2022/07/19 10:24:06;;;;;;;;;;;;;;;31.93;31.59;101004.68;1719542;83;20482;-76
2022/07/19 10:26:36;;;;;;;;;;;;;;;32.12;31.14;101006.02;1708236;83;21127;-76
2022/07/19 10:29:12;;;;;;;;;;;;;;;32.33;31.25;100996.66;1727692;81;20232;-76
2022/07/19 10:31:40;;;;;;;;;;;;;;;32.53;30.19;100995.63;1728146;83;20206;-76
2022/07/19 10:34:09;;;;;;;;;;;;;;;32.72;30.01;100990.69;1728302;83;20200;-76
2022/07/19 10:36:46;;;;;;;;;;;;;;;32.91;29.66;100983.84;1728218;83;20498;-76
2022/07/19 10:39:21;;;;;;;;;;;;;;;33.21;29.36;100992.30;1726002;81;21186;-76
2022/07/19 10:42:13;;;;;;;;;;;;;;;33.51;29.11;100993.05;1728190;82;20470;-76
2022/07/19 10:45:02;;;;;;;;;;;;;;;33.72;28.67;100984.07;1716808;82;20143;-76
2022/07/19 10:47:38;;;;;;;;;;;;;;;33.86;28.59;100985.56;1727091;81;20223;-77
2022/07/19 10:50:09;;;;;;;;;;;;;;;34.06;28.52;100979.82;1700560;83;20475;-76
2022/07/19 10:52:37;;;;;;;;;;;;;;;34.23;28.46;100974.92;1728015;83;21125;-77
2022/07/19 10:55:22;;;;;;;;;;;;;;;34.42;28.19;100982.37;1728053;81;20555;-76
2022/07/19 10:57:51;;;;;;;;;;;;;;;34.66;27.58;100976.67;1728160;81;20464;-76
2022/07/19 11:00:25;;;;;;;;;;;;;;;34.83;27.37;100980.20;1728265;82;20163;-76
2022/07/19 11:02:54;;;;;;;;;;;;;;;35.01;27.67;100978.30;1726987;83;20530;-80
2022/07/19 11:05:26;;;;;;;;;;;;;;;35.30;27.01;100979.05;1722490;83;22046;-77
2022/07/19 11:07:55;;;;;;;;;;;;;;;35.47;26.64;100976.78;1725299;83;20199;-77
2022/07/19 11:10:26;;;;;;;;;;;;;;;35.62;26.28;100979.37;1721530;83;20200;-78
2022/07/19 11:12:55;;;;;;;;;;;;;;;35.83;26.23;100981.05;1725159;83;20476;-80
2022/07/19 11:15:23;;;;;;;;;;;;;;;36.06;25.88;100977.42;1723902;81;20564;-79
2022/07/19 11:17:55;;;;;;;;;;;;;;;36.28;25.72;100967.61;1725429;83;21110;-81
2022/07/19 11:20:24;;;;;;;;;;;;;;;36.16;24.92;100968.79;1660803;85;20781;-80
2022/07/19 11:22:52;;;;;;;;;;;;;;;35.98;24.80;100965.86;1660582;85;20213;-82
2022/07/19 11:25:31;;;;;;;;;;;;;;;35.79;24.97;100963.44;1670229;85;20196;-83
2022/07/19 11:27:59;;;;;;;;;;;;;;;35.64;24.54;100956.80;1653237;86;21414;-82
2022/07/19 11:30:28;;;;;;;;;;;;;;;35.49;24.44;100966.52;1706389;83;20997;-80
2022/07/19 11:32:58;;;;;;;;;;;;;;;35.41;24.79;100959.36;1715181;83;20519;-80
2022/07/19 11:35:25;;;;;;;;;;;;;;;35.52;24.78;100954.66;1707070;82;20177;-79
2022/07/19 11:37:56;;;;;;;;;;;;;;;35.64;25.06;100951.34;1718383;83;20235;-80
2022/07/19 11:40:24;;;;;;;;;;;;;;;35.78;24.85;100945.37;1713952;83;21517;-78
2022/07/19 11:42:51;;;;;;;;;;;;;;;36.01;25.24;100947.70;1704530;83;21123;-81
2022/07/19 11:45:23;;;;;;;;;;;;;;;36.16;24.53;100928.69;1699048;83;20154;-79
2022/07/19 11:47:53;;;;;;;;;;;;;;;35.93;24.25;100934.58;1719461;83;20439;-80
2022/07/19 11:50:22;;;;;;;;;;;;;;;36.05;24.62;100927.11;1712310;83;20394;-80
2022/07/19 11:52:52;;;;;;;;;;;;;;;36.25;24.67;100931.20;1722825;79;20609;-82
2022/07/19 11:55:27;;;;;;;;;;;;;;;36.37;24.49;100933.59;1765367;80;21193;-78
2022/07/19 11:57:54;;;;;;;;;;;;;;;36.49;24.37;100929.67;1766139;80;20527;-78
2022/07/19 12:00:21;;;;;;;;;;;;;;;36.62;24.09;100934.59;1757748;79;20196;-78
2022/07/19 12:02:57;;;;;;;;;;;;;;;36.71;24.15;100926.16;1757312;80;20501;-79
2022/07/19 12:05:25;;;;;;;;;;;;;;;36.71;24.01;100922.89;1758809;79;20574;-78
2022/07/19 12:07:54;;;;;;;;;;;;;;;36.77;23.98;100924.75;1773764;80;21013;-82
2022/07/19 12:10:37;;;;;;;;;;;;;;;36.78;23.85;100914.16;1760049;80;20234;-77
2022/07/19 12:13:35;;;;;;;;;;;;;;;36.87;23.68;100919.38;1770508;80;20143;-85
2022/07/19 12:16:23;;;;;;;;;;;;;;;37.04;23.32;100917.83;1749613;79;20204;-79
2022/07/19 12:22:24;;;;;;;;;;;;;;;36.89;22.77;100914.50;1489478;94;20830;-82
2022/07/19 12:24:30;;;;;;;;;;;;;;;37.01;22.97;100912.28;1447235;95;20545;-83
2022/07/19 12:27:03;;;;;;;;;;;;;;;36.95;22.79;100906.30;1480568;95;20435;-79
2022/07/19 12:29:35;;;;;;;;;;;;;;;37.01;22.50;100910.91;1481691;95;20158;-78
2022/07/19 12:32:08;;;;;;;;;;;;;;;37.14;22.56;100916.84;1474243;96;20526;-78
2022/07/19 12:34:49;;;;;;;;;;;;;;;37.30;22.21;100909.98;1474468;96;21165;-83
2022/07/19 12:37:24;;;;;;;;;;;;;;;37.55;21.91;100903.73;1474303;96;20875;-79
2022/07/19 12:40:09;;;;;;;;;;;;;;;37.73;21.56;100910.64;1474405;96;20225;-84
2022/07/19 12:42:48;;;;;;;;;;;;;;;37.86;21.36;100900.12;1474405;96;20196;-78
2022/07/19 12:45:18;;;;;;;;;;;;;;;37.90;21.24;100904.06;1474507;96;21183;-78
2022/07/19 12:47:46;;;;;;;;;;;;;;;37.92;21.19;100896.47;1474341;96;21249;-80